Ana Sayfa
METAR-TAF:

METAR-TAF

Havaalanları :

Wilbarger County Airport

Vernon, Teksas, Amerika Birleşik Devletleri

Enlem: 34-13-32N, Boylam: 099-17-01W, yükseklik: 386 m

Güncel hava durumu gözlemi

Rapor saat 15:35 UTC de 27 dakika önce yapıldı.
Rüzgar güney/güneybatıdan 11 kt ve 17 kt'a kadar ani rüzgarlar
Sıcaklık 34°C
Nem 47%
Basınç 1013 hPa
Görüş mesafesi: 16.1 km
Açık gökyüzü

METAR: KF05 251535Z AUTO 20011G17KT 10SM CLR 34/21 A2991 RMK AO2 T03390207

Saat: 11:02 (16:02 UTC)


TAF: eksik

4.000'den fazla havaalanı için hava durumu gözlemleri ve tahminleri (METAR ve TAF raporları).

Kullanılabilir istasyonlar harita üzerinde sarı ve kırmızı noktalarla gösterilir.

İstasyonun adını görmek için fareyi noktanın üzerinde gezdirin.

Sonrasında hava gözlem ve tahminlerini görmek için tıklayın.

Haritayı değiştirmek için: yaklaştırmak için siyah artı işaretli yeşil düğmeye ve uzaklaştırmak için de eksi işaretli düğmeye hızla tıklayın; bitişik haritalar için yeşil okları kullanın.


METAR-TAF: